Harrodsburg, Kentucky
Current Conditions -  °F | °C
As of 11:15 AM on Monday 22 Dec 2014 (Local Time) from KDVK Reporting Station
Overcast Overcast  
Wind Chill: 44°   Ceiling: 3300
Heat Index: 46°   Visibility: 10mi
Dew Point: 37°   Wind: 6mph
Humidity: 71%   Direction: 170°S
Pressure: 29.96"   Gusts: NA
Location:  37.76°N, 84.84°W
Report Text: KDVK 221615Z AUTO 17005KT 10SM SCT026 OVC033 08/03 A2996 RMK AO2
Loading
Personal Weather Stations






























Interactive Weather Map New forecast layout! Learn more

10-Day Weather Forecast

Advertisements
Track Severe Weather on mobile